sensor_id;sensor_type;location;lat;lon;timestamp;P1;durP1;ratioP1;P2;durP2;ratioP2
13568;SDS011;6856;51.460;7.158;2024-03-08T00:01:14;12.87;;;11.57;;
13568;SDS011;6856;51.460;7.158;2024-03-08T00:03:50;13.03;;;11.63;;
13568;SDS011;6856;51.460;7.158;2024-03-08T00:06:25;14.30;;;12.13;;
13568;SDS011;6856;51.460;7.158;2024-03-08T00:08:59;13.07;;;11.67;;
13568;SDS011;6856;51.460;7.158;2024-03-08T00:11:33;12.00;;;10.80;;
13568;SDS011;6856;51.460;7.158;2024-03-08T00:14:07;14.27;;;12.77;;
13568;SDS011;6856;51.460;7.158;2024-03-08T00:16:43;13.13;;;11.70;;
13568;SDS011;6856;51.460;7.158;2024-03-08T00:19:17;13.27;;;11.93;;
13568;SDS011;6856;51.460;7.158;2024-03-08T00:21:50;13.93;;;12.43;;
13568;SDS011;6856;51.460;7.158;2024-03-08T00:24:24;14.57;;;12.97;;
13568;SDS011;6856;51.460;7.158;2024-03-08T00:27:04;15.13;;;13.53;;
13568;SDS011;6856;51.460;7.158;2024-03-08T00:29:38;14.30;;;12.80;;
13568;SDS011;6856;51.460;7.158;2024-03-08T00:32:13;14.30;;;12.80;;
13568;SDS011;6856;51.460;7.158;2024-03-08T00:34:48;14.30;;;12.87;;
13568;SDS011;6856;51.460;7.158;2024-03-08T00:37:23;13.83;;;11.90;;
13568;SDS011;6856;51.460;7.158;2024-03-08T00:39:58;13.30;;;12.00;;
13568;SDS011;6856;51.460;7.158;2024-03-08T00:42:33;14.07;;;12.67;;
13568;SDS011;6856;51.460;7.158;2024-03-08T00:45:10;14.13;;;12.50;;
13568;SDS011;6856;51.460;7.158;2024-03-08T00:47:46;14.70;;;13.13;;
13568;SDS011;6856;51.460;7.158;2024-03-08T00:50:22;14.10;;;12.60;;
13568;SDS011;6856;51.460;7.158;2024-03-08T00:52:56;14.13;;;12.77;;
13568;SDS011;6856;51.460;7.158;2024-03-08T00:55:30;14.67;;;13.17;;
13568;SDS011;6856;51.460;7.158;2024-03-08T00:58:05;15.13;;;13.63;;
13568;SDS011;6856;51.460;7.158;2024-03-08T01:00:41;14.40;;;13.03;;
13568;SDS011;6856;51.460;7.158;2024-03-08T01:03:16;13.73;;;12.37;;
13568;SDS011;6856;51.460;7.158;2024-03-08T01:05:50;15.70;;;14.10;;
13568;SDS011;6856;51.460;7.158;2024-03-08T01:08:24;14.50;;;13.07;;
13568;SDS011;6856;51.460;7.158;2024-03-08T01:10:58;14.17;;;12.77;;
13568;SDS011;6856;51.460;7.158;2024-03-08T01:13:32;14.03;;;12.63;;
13568;SDS011;6856;51.460;7.158;2024-03-08T01:16:07;15.03;;;13.43;;
13568;SDS011;6856;51.460;7.158;2024-03-08T01:18:46;15.03;;;13.43;;
13568;SDS011;6856;51.460;7.158;2024-03-08T01:21:22;15.57;;;13.97;;
13568;SDS011;6856;51.460;7.158;2024-03-08T01:23:55;14.70;;;13.17;;
13568;SDS011;6856;51.460;7.158;2024-03-08T01:26:30;14.53;;;13.10;;
13568;SDS011;6856;51.460;7.158;2024-03-08T01:29:05;15.03;;;13.53;;
13568;SDS011;6856;51.460;7.158;2024-03-08T01:31:40;14.07;;;12.67;;
13568;SDS011;6856;51.460;7.158;2024-03-08T01:34:15;14.93;;;13.43;;
13568;SDS011;6856;51.460;7.158;2024-03-08T01:36:51;15.13;;;13.63;;
13568;SDS011;6856;51.460;7.158;2024-03-08T01:39:25;15.50;;;13.90;;
13568;SDS011;6856;51.460;7.158;2024-03-08T01:41:59;15.03;;;13.53;;
13568;SDS011;6856;51.460;7.158;2024-03-08T01:44:34;15.20;;;13.70;;
13568;SDS011;6856;51.460;7.158;2024-03-08T01:47:10;15.50;;;14.00;;
13568;SDS011;6856;51.460;7.158;2024-03-08T01:49:49;16.07;;;14.47;;
13568;SDS011;6856;51.460;7.158;2024-03-08T01:52:24;15.23;;;13.73;;
13568;SDS011;6856;51.460;7.158;2024-03-08T01:54:59;15.50;;;13.93;;
13568;SDS011;6856;51.460;7.158;2024-03-08T01:57:35;14.60;;;13.10;;
13568;SDS011;6856;51.460;7.158;2024-03-08T02:00:11;14.17;;;12.80;;
13568;SDS011;6856;51.460;7.158;2024-03-08T02:02:46;14.40;;;13.00;;
13568;SDS011;6856;51.460;7.158;2024-03-08T02:05:26;15.23;;;13.73;;
13568;SDS011;6856;51.460;7.158;2024-03-08T02:08:02;15.57;;;13.97;;
13568;SDS011;6856;51.460;7.158;2024-03-08T02:10:37;16.33;;;14.63;;
13568;SDS011;6856;51.460;7.158;2024-03-08T02:13:12;14.20;;;12.73;;
13568;SDS011;6856;51.460;7.158;2024-03-08T02:15:52;15.67;;;14.10;;
13568;SDS011;6856;51.460;7.158;2024-03-08T02:18:27;15.10;;;13.63;;
13568;SDS011;6856;51.460;7.158;2024-03-08T02:21:04;14.83;;;13.33;;
13568;SDS011;6856;51.460;7.158;2024-03-08T02:23:40;13.83;;;12.43;;
13568;SDS011;6856;51.460;7.158;2024-03-08T02:26:16;14.90;;;13.40;;
13568;SDS011;6856;51.460;7.158;2024-03-08T02:28:50;15.00;;;13.53;;
13568;SDS011;6856;51.460;7.158;2024-03-08T02:31:25;15.13;;;13.57;;
13568;SDS011;6856;51.460;7.158;2024-03-08T02:33:59;14.57;;;13.17;;
13568;SDS011;6856;51.460;7.158;2024-03-08T02:36:35;14.93;;;13.33;;
13568;SDS011;6856;51.460;7.158;2024-03-08T02:39:09;14.73;;;13.27;;
13568;SDS011;6856;51.460;7.158;2024-03-08T02:41:43;15.53;;;14.03;;
13568;SDS011;6856;51.460;7.158;2024-03-08T02:44:18;15.40;;;13.93;;
13568;SDS011;6856;51.460;7.158;2024-03-08T02:46:54;16.40;;;14.70;;
13568;SDS011;6856;51.460;7.158;2024-03-08T02:49:28;15.53;;;13.97;;
13568;SDS011;6856;51.460;7.158;2024-03-08T02:52:02;15.60;;;14.07;;
13568;SDS011;6856;51.460;7.158;2024-03-08T02:54:36;15.67;;;14.07;;
13568;SDS011;6856;51.460;7.158;2024-03-08T02:57:10;16.00;;;14.43;;
13568;SDS011;6856;51.460;7.158;2024-03-08T02:59:46;15.07;;;13.53;;
13568;SDS011;6856;51.460;7.158;2024-03-08T03:02:20;16.10;;;14.43;;
13568;SDS011;6856;51.460;7.158;2024-03-08T03:04:55;16.00;;;14.40;;
13568;SDS011;6856;51.460;7.158;2024-03-08T03:07:32;17.03;;;15.23;;
13568;SDS011;6856;51.460;7.158;2024-03-08T03:10:08;16.07;;;14.57;;
13568;SDS011;6856;51.460;7.158;2024-03-08T03:12:44;15.70;;;13.97;;
13568;SDS011;6856;51.460;7.158;2024-03-08T03:15:20;15.37;;;13.80;;
13568;SDS011;6856;51.460;7.158;2024-03-08T03:17:58;17.00;;;15.17;;
13568;SDS011;6856;51.460;7.158;2024-03-08T03:20:33;16.50;;;14.90;;
13568;SDS011;6856;51.460;7.158;2024-03-08T03:23:14;15.33;;;13.73;;
13568;SDS011;6856;51.460;7.158;2024-03-08T03:25:53;15.57;;;13.97;;
13568;SDS011;6856;51.460;7.158;2024-03-08T03:28:28;15.80;;;14.23;;
13568;SDS011;6856;51.460;7.158;2024-03-08T03:31:06;15.57;;;14.03;;
13568;SDS011;6856;51.460;7.158;2024-03-08T03:33:45;14.63;;;13.13;;
13568;SDS011;6856;51.460;7.158;2024-03-08T03:36:19;16.93;;;14.80;;
13568;SDS011;6856;51.460;7.158;2024-03-08T03:38:55;15.33;;;13.83;;
13568;SDS011;6856;51.460;7.158;2024-03-08T03:41:39;15.33;;;13.77;;
13568;SDS011;6856;51.460;7.158;2024-03-08T03:44:12;15.27;;;13.73;;
13568;SDS011;6856;51.460;7.158;2024-03-08T03:46:50;16.10;;;14.40;;
13568;SDS011;6856;51.460;7.158;2024-03-08T03:49:25;15.83;;;14.33;;
13568;SDS011;6856;51.460;7.158;2024-03-08T03:52:00;16.30;;;14.60;;
13568;SDS011;6856;51.460;7.158;2024-03-08T03:54:37;16.43;;;14.73;;
13568;SDS011;6856;51.460;7.158;2024-03-08T03:57:12;15.57;;;14.03;;
13568;SDS011;6856;51.460;7.158;2024-03-08T03:59:46;15.47;;;13.87;;
13568;SDS011;6856;51.460;7.158;2024-03-08T04:02:20;16.17;;;14.50;;
13568;SDS011;6856;51.460;7.158;2024-03-08T04:04:54;16.60;;;14.90;;
13568;SDS011;6856;51.460;7.158;2024-03-08T04:07:28;16.20;;;14.60;;
13568;SDS011;6856;51.460;7.158;2024-03-08T04:10:05;15.93;;;14.33;;
13568;SDS011;6856;51.460;7.158;2024-03-08T04:12:45;15.93;;;14.30;;
13568;SDS011;6856;51.460;7.158;2024-03-08T04:15:18;16.63;;;15.00;;
13568;SDS011;6856;51.460;7.158;2024-03-08T04:17:52;17.30;;;15.50;;
13568;SDS011;6856;51.460;7.158;2024-03-08T04:20:28;15.47;;;13.97;;
13568;SDS011;6856;51.460;7.158;2024-03-08T04:23:02;16.30;;;14.60;;
13568;SDS011;6856;51.460;7.158;2024-03-08T04:25:40;15.47;;;13.97;;
13568;SDS011;6856;51.460;7.158;2024-03-08T04:28:17;17.20;;;15.53;;
13568;SDS011;6856;51.460;7.158;2024-03-08T04:30:53;17.50;;;15.53;;
13568;SDS011;6856;51.460;7.158;2024-03-08T04:33:28;16.73;;;15.03;;
13568;SDS011;6856;51.460;7.158;2024-03-08T04:36:04;16.20;;;14.53;;
13568;SDS011;6856;51.460;7.158;2024-03-08T04:38:48;17.47;;;15.67;;
13568;SDS011;6856;51.460;7.158;2024-03-08T04:41:24;16.97;;;15.23;;
13568;SDS011;6856;51.460;7.158;2024-03-08T04:43:59;16.50;;;14.83;;
13568;SDS011;6856;51.460;7.158;2024-03-08T04:46:33;16.97;;;15.17;;
13568;SDS011;6856;51.460;7.158;2024-03-08T04:49:06;16.03;;;14.43;;
13568;SDS011;6856;51.460;7.158;2024-03-08T04:51:40;17.40;;;15.60;;
13568;SDS011;6856;51.460;7.158;2024-03-08T04:54:17;16.77;;;15.07;;
13568;SDS011;6856;51.460;7.158;2024-03-08T04:56:54;16.73;;;14.97;;
13568;SDS011;6856;51.460;7.158;2024-03-08T04:59:28;17.57;;;15.73;;
13568;SDS011;6856;51.460;7.158;2024-03-08T05:02:03;16.83;;;15.10;;
13568;SDS011;6856;51.460;7.158;2024-03-08T05:04:39;17.00;;;15.30;;
13568;SDS011;6856;51.460;7.158;2024-03-08T05:07:14;16.13;;;14.53;;
13568;SDS011;6856;51.460;7.158;2024-03-08T05:09:51;17.00;;;15.33;;
13568;SDS011;6856;51.460;7.158;2024-03-08T05:12:27;17.30;;;15.60;;
13568;SDS011;6856;51.460;7.158;2024-03-08T05:15:01;16.50;;;14.90;;
13568;SDS011;6856;51.460;7.158;2024-03-08T05:17:38;18.13;;;16.23;;
13568;SDS011;6856;51.460;7.158;2024-03-08T05:20:14;16.97;;;15.27;;
13568;SDS011;6856;51.460;7.158;2024-03-08T05:22:49;17.40;;;15.73;;
13568;SDS011;6856;51.460;7.158;2024-03-08T05:25:23;16.07;;;14.40;;
13568;SDS011;6856;51.460;7.158;2024-03-08T05:27:59;15.87;;;14.27;;
13568;SDS011;6856;51.460;7.158;2024-03-08T05:30:33;17.07;;;15.47;;
13568;SDS011;6856;51.460;7.158;2024-03-08T05:33:09;17.77;;;15.97;;
13568;SDS011;6856;51.460;7.158;2024-03-08T05:35:48;17.77;;;16.03;;
13568;SDS011;6856;51.460;7.158;2024-03-08T05:38:22;17.50;;;15.60;;
13568;SDS011;6856;51.460;7.158;2024-03-08T05:40:56;17.80;;;16.00;;
13568;SDS011;6856;51.460;7.158;2024-03-08T05:43:31;17.80;;;16.00;;
13568;SDS011;6856;51.460;7.158;2024-03-08T05:46:06;17.50;;;15.70;;
13568;SDS011;6856;51.460;7.158;2024-03-08T05:48:40;18.17;;;16.37;;
13568;SDS011;6856;51.460;7.158;2024-03-08T05:51:14;16.83;;;15.00;;
13568;SDS011;6856;51.460;7.158;2024-03-08T05:53:50;17.53;;;15.73;;
13568;SDS011;6856;51.460;7.158;2024-03-08T05:56:24;17.80;;;16.00;;
13568;SDS011;6856;51.460;7.158;2024-03-08T05:59:02;17.50;;;15.70;;
13568;SDS011;6856;51.460;7.158;2024-03-08T06:01:35;17.17;;;15.30;;
13568;SDS011;6856;51.460;7.158;2024-03-08T06:04:14;16.73;;;15.10;;
13568;SDS011;6856;51.460;7.158;2024-03-08T06:06:49;18.27;;;16.47;;
13568;SDS011;6856;51.460;7.158;2024-03-08T06:09:27;17.70;;;16.00;;
13568;SDS011;6856;51.460;7.158;2024-03-08T06:12:01;16.87;;;15.17;;
13568;SDS011;6856;51.460;7.158;2024-03-08T06:14:37;19.20;;;16.50;;
13568;SDS011;6856;51.460;7.158;2024-03-08T06:17:11;17.93;;;16.23;;
13568;SDS011;6856;51.460;7.158;2024-03-08T06:19:45;18.33;;;16.53;;
13568;SDS011;6856;51.460;7.158;2024-03-08T06:22:20;18.10;;;16.20;;
13568;SDS011;6856;51.460;7.158;2024-03-08T06:24:54;17.30;;;15.63;;
13568;SDS011;6856;51.460;7.158;2024-03-08T06:27:33;18.90;;;16.90;;
13568;SDS011;6856;51.460;7.158;2024-03-08T06:30:09;19.73;;;17.47;;
13568;SDS011;6856;51.460;7.158;2024-03-08T06:32:45;18.30;;;16.50;;
13568;SDS011;6856;51.460;7.158;2024-03-08T06:35:20;18.63;;;16.73;;
13568;SDS011;6856;51.460;7.158;2024-03-08T06:37:54;19.63;;;17.63;;
13568;SDS011;6856;51.460;7.158;2024-03-08T06:40:29;20.17;;;18.07;;
13568;SDS011;6856;51.460;7.158;2024-03-08T06:43:12;18.97;;;17.07;;
13568;SDS011;6856;51.460;7.158;2024-03-08T06:45:49;18.10;;;16.23;;
13568;SDS011;6856;51.460;7.158;2024-03-08T06:48:26;19.37;;;17.37;;
13568;SDS011;6856;51.460;7.158;2024-03-08T06:51:01;19.47;;;17.43;;
13568;SDS011;6856;51.460;7.158;2024-03-08T06:53:35;19.53;;;17.43;;
13568;SDS011;6856;51.460;7.158;2024-03-08T06:56:10;18.83;;;16.83;;
13568;SDS011;6856;51.460;7.158;2024-03-08T06:58:45;18.47;;;16.57;;
13568;SDS011;6856;51.460;7.158;2024-03-08T07:01:22;19.70;;;17.67;;
13568;SDS011;6856;51.460;7.158;2024-03-08T07:03:58;19.20;;;17.20;;
13568;SDS011;6856;51.460;7.158;2024-03-08T07:06:37;20.20;;;18.10;;
13568;SDS011;6856;51.460;7.158;2024-03-08T07:09:12;20.93;;;18.33;;
13568;SDS011;6856;51.460;7.158;2024-03-08T07:11:49;18.83;;;16.93;;
13568;SDS011;6856;51.460;7.158;2024-03-08T07:14:26;18.77;;;16.83;;
13568;SDS011;6856;51.460;7.158;2024-03-08T07:17:01;19.20;;;16.90;;
13568;SDS011;6856;51.460;7.158;2024-03-08T07:19:37;19.87;;;17.87;;
13568;SDS011;6856;51.460;7.158;2024-03-08T07:22:13;20.83;;;18.63;;
13568;SDS011;6856;51.460;7.158;2024-03-08T07:24:47;19.30;;;17.33;;
13568;SDS011;6856;51.460;7.158;2024-03-08T07:27:36;23.40;;;18.93;;
13568;SDS011;6856;51.460;7.158;2024-03-08T07:30:10;20.63;;;18.43;;
13568;SDS011;6856;51.460;7.158;2024-03-08T07:33:07;20.97;;;18.83;;
13568;SDS011;6856;51.460;7.158;2024-03-08T07:35:44;20.13;;;18.00;;
13568;SDS011;6856;51.460;7.158;2024-03-08T07:38:21;21.50;;;18.37;;
13568;SDS011;6856;51.460;7.158;2024-03-08T07:40:56;21.07;;;18.87;;
13568;SDS011;6856;51.460;7.158;2024-03-08T07:43:32;20.77;;;18.50;;
13568;SDS011;6856;51.460;7.158;2024-03-08T07:46:06;20.53;;;18.47;;
13568;SDS011;6856;51.460;7.158;2024-03-08T07:48:43;20.17;;;17.93;;
13568;SDS011;6856;51.460;7.158;2024-03-08T07:51:19;19.43;;;17.43;;
13568;SDS011;6856;51.460;7.158;2024-03-08T07:53:55;20.43;;;18.33;;
13568;SDS011;6856;51.460;7.158;2024-03-08T07:56:29;21.00;;;18.93;;
13568;SDS011;6856;51.460;7.158;2024-03-08T07:59:03;19.63;;;17.63;;
13568;SDS011;6856;51.460;7.158;2024-03-08T08:01:38;19.17;;;17.23;;
13568;SDS011;6856;51.460;7.158;2024-03-08T08:04:14;19.27;;;17.30;;
13568;SDS011;6856;51.460;7.158;2024-03-08T08:06:49;20.23;;;18.07;;
13568;SDS011;6856;51.460;7.158;2024-03-08T08:09:24;20.83;;;18.63;;
13568;SDS011;6856;51.460;7.158;2024-03-08T08:12:06;20.73;;;18.53;;
13568;SDS011;6856;51.460;7.158;2024-03-08T08:14:44;20.40;;;17.83;;
13568;SDS011;6856;51.460;7.158;2024-03-08T08:17:18;19.73;;;17.73;;
13568;SDS011;6856;51.460;7.158;2024-03-08T08:20:00;19.40;;;17.40;;
13568;SDS011;6856;51.460;7.158;2024-03-08T08:22:37;21.03;;;17.77;;
13568;SDS011;6856;51.460;7.158;2024-03-08T08:25:12;20.67;;;18.50;;
13568;SDS011;6856;51.460;7.158;2024-03-08T08:27:51;20.10;;;18.03;;
13568;SDS011;6856;51.460;7.158;2024-03-08T08:30:25;19.30;;;17.20;;
13568;SDS011;6856;51.460;7.158;2024-03-08T08:32:59;20.00;;;18.00;;
13568;SDS011;6856;51.460;7.158;2024-03-08T08:35:34;18.63;;;16.67;;
13568;SDS011;6856;51.460;7.158;2024-03-08T08:38:08;19.87;;;17.77;;
13568;SDS011;6856;51.460;7.158;2024-03-08T08:40:43;19.70;;;17.63;;
13568;SDS011;6856;51.460;7.158;2024-03-08T08:43:18;18.80;;;16.83;;
13568;SDS011;6856;51.460;7.158;2024-03-08T08:45:55;18.73;;;16.20;;
13568;SDS011;6856;51.460;7.158;2024-03-08T08:48:29;18.97;;;16.97;;
13568;SDS011;6856;51.460;7.158;2024-03-08T08:51:05;19.33;;;17.33;;
13568;SDS011;6856;51.460;7.158;2024-03-08T08:53:39;20.07;;;17.90;;
13568;SDS011;6856;51.460;7.158;2024-03-08T08:56:14;17.90;;;16.00;;
13568;SDS011;6856;51.460;7.158;2024-03-08T08:58:49;17.73;;;15.93;;
13568;SDS011;6856;51.460;7.158;2024-03-08T09:01:25;16.33;;;14.67;;
13568;SDS011;6856;51.460;7.158;2024-03-08T09:04:00;18.90;;;16.90;;
13568;SDS011;6856;51.460;7.158;2024-03-08T09:06:36;17.67;;;15.83;;
13568;SDS011;6856;51.460;7.158;2024-03-08T09:09:12;18.70;;;16.73;;
13568;SDS011;6856;51.460;7.158;2024-03-08T09:11:49;17.20;;;15.20;;
13568;SDS011;6856;51.460;7.158;2024-03-08T09:14:23;17.07;;;15.27;;
13568;SDS011;6856;51.460;7.158;2024-03-08T09:16:59;16.83;;;14.77;;
13568;SDS011;6856;51.460;7.158;2024-03-08T09:19:33;16.30;;;14.53;;
13568;SDS011;6856;51.460;7.158;2024-03-08T09:22:09;17.00;;;14.80;;
13568;SDS011;6856;51.460;7.158;2024-03-08T09:24:46;17.07;;;15.10;;
13568;SDS011;6856;51.460;7.158;2024-03-08T09:27:21;16.33;;;14.40;;
13568;SDS011;6856;51.460;7.158;2024-03-08T09:29:55;16.70;;;14.60;;
13568;SDS011;6856;51.460;7.158;2024-03-08T09:32:29;17.73;;;15.17;;
13568;SDS011;6856;51.460;7.158;2024-03-08T09:35:03;17.43;;;14.57;;
13568;SDS011;6856;51.460;7.158;2024-03-08T09:37:41;21.23;;;15.30;;
13568;SDS011;6856;51.460;7.158;2024-03-08T09:40:15;15.83;;;14.23;;
13568;SDS011;6856;51.460;7.158;2024-03-08T09:42:51;15.43;;;13.83;;
13568;SDS011;6856;51.460;7.158;2024-03-08T09:45:27;15.97;;;14.00;;
13568;SDS011;6856;51.460;7.158;2024-03-08T09:48:11;17.57;;;14.57;;
13568;SDS011;6856;51.460;7.158;2024-03-08T09:50:46;16.77;;;14.03;;
13568;SDS011;6856;51.460;7.158;2024-03-08T09:53:24;15.67;;;13.97;;
13568;SDS011;6856;51.460;7.158;2024-03-08T09:55:58;14.93;;;13.40;;
13568;SDS011;6856;51.460;7.158;2024-03-08T09:58:33;15.77;;;14.07;;
13568;SDS011;6856;51.460;7.158;2024-03-08T10:01:25;14.63;;;13.07;;
13568;SDS011;6856;51.460;7.158;2024-03-08T10:03:59;15.57;;;13.97;;
13568;SDS011;6856;51.460;7.158;2024-03-08T10:06:35;16.77;;;13.43;;
13568;SDS011;6856;51.460;7.158;2024-03-08T10:09:11;15.13;;;13.57;;
13568;SDS011;6856;51.460;7.158;2024-03-08T10:11:45;22.37;;;14.83;;
13568;SDS011;6856;51.460;7.158;2024-03-08T10:14:20;16.30;;;13.70;;
13568;SDS011;6856;51.460;7.158;2024-03-08T10:16:54;16.13;;;14.43;;
13568;SDS011;6856;51.460;7.158;2024-03-08T10:19:31;15.50;;;13.90;;
13568;SDS011;6856;51.460;7.158;2024-03-08T10:22:05;15.00;;;13.40;;
13568;SDS011;6856;51.460;7.158;2024-03-08T10:24:51;19.97;;;14.30;;
13568;SDS011;6856;51.460;7.158;2024-03-08T10:27:25;16.50;;;14.27;;
13568;SDS011;6856;51.460;7.158;2024-03-08T10:30:00;15.47;;;13.57;;
13568;SDS011;6856;51.460;7.158;2024-03-08T10:32:34;15.60;;;13.83;;
13568;SDS011;6856;51.460;7.158;2024-03-08T10:35:09;14.87;;;13.37;;
13568;SDS011;6856;51.460;7.158;2024-03-08T10:37:45;20.27;;;14.90;;
13568;SDS011;6856;51.460;7.158;2024-03-08T10:40:23;15.80;;;14.00;;
13568;SDS011;6856;51.460;7.158;2024-03-08T10:42:59;15.33;;;13.80;;
13568;SDS011;6856;51.460;7.158;2024-03-08T10:45:35;16.70;;;14.03;;
13568;SDS011;6856;51.460;7.158;2024-03-08T10:48:20;14.80;;;13.20;;
13568;SDS011;6856;51.460;7.158;2024-03-08T10:51:10;14.80;;;13.17;;
13568;SDS011;6856;51.460;7.158;2024-03-08T10:53:45;14.83;;;13.27;;
13568;SDS011;6856;51.460;7.158;2024-03-08T10:56:24;15.03;;;13.03;;
13568;SDS011;6856;51.460;7.158;2024-03-08T10:59:00;14.63;;;13.03;;
13568;SDS011;6856;51.460;7.158;2024-03-08T11:01:36;14.90;;;13.30;;
13568;SDS011;6856;51.460;7.158;2024-03-08T11:04:10;13.97;;;12.43;;
13568;SDS011;6856;51.460;7.158;2024-03-08T11:06:46;13.77;;;12.37;;
13568;SDS011;6856;51.460;7.158;2024-03-08T11:09:30;15.63;;;13.50;;
13568;SDS011;6856;51.460;7.158;2024-03-08T11:12:23;14.97;;;13.37;;
13568;SDS011;6856;51.460;7.158;2024-03-08T11:15:02;17.30;;;14.20;;
13568;SDS011;6856;51.460;7.158;2024-03-08T11:17:45;13.87;;;12.40;;
13568;SDS011;6856;51.460;7.158;2024-03-08T11:20:23;14.53;;;12.43;;
13568;SDS011;6856;51.460;7.158;2024-03-08T11:22:59;15.17;;;13.57;;
13568;SDS011;6856;51.460;7.158;2024-03-08T11:25:41;15.30;;;13.03;;
13568;SDS011;6856;51.460;7.158;2024-03-08T11:28:19;14.70;;;12.90;;
13568;SDS011;6856;51.460;7.158;2024-03-08T11:34:00;13.80;;;12.30;;
13568;SDS011;6856;51.460;7.158;2024-03-08T11:36:34;14.90;;;13.30;;
13568;SDS011;6856;51.460;7.158;2024-03-08T11:39:09;15.07;;;13.40;;
13568;SDS011;6856;51.460;7.158;2024-03-08T11:41:46;15.00;;;13.37;;
13568;SDS011;6856;51.460;7.158;2024-03-08T11:44:24;14.70;;;13.20;;
13568;SDS011;6856;51.460;7.158;2024-03-08T11:47:00;15.07;;;13.33;;
13568;SDS011;6856;51.460;7.158;2024-03-08T11:49:36;13.63;;;12.00;;
13568;SDS011;6856;51.460;7.158;2024-03-08T11:52:12;12.53;;;11.23;;
13568;SDS011;6856;51.460;7.158;2024-03-08T11:54:51;17.30;;;11.97;;
13568;SDS011;6856;51.460;7.158;2024-03-08T11:57:29;13.63;;;11.40;;
13568;SDS011;6856;51.460;7.158;2024-03-08T12:00:11;13.57;;;11.30;;
13568;SDS011;6856;51.460;7.158;2024-03-08T12:03:01;12.17;;;10.53;;
13568;SDS011;6856;51.460;7.158;2024-03-08T12:05:35;13.13;;;11.70;;
13568;SDS011;6856;51.460;7.158;2024-03-08T12:08:09;13.87;;;11.00;;
13568;SDS011;6856;51.460;7.158;2024-03-08T12:10:45;12.03;;;10.17;;
13568;SDS011;6856;51.460;7.158;2024-03-08T12:13:19;12.33;;;11.03;;
13568;SDS011;6856;51.460;7.158;2024-03-08T12:15:54;13.17;;;11.77;;
13568;SDS011;6856;51.460;7.158;2024-03-08T12:18:33;13.10;;;11.70;;
13568;SDS011;6856;51.460;7.158;2024-03-08T12:21:12;11.57;;;10.37;;
13568;SDS011;6856;51.460;7.158;2024-03-08T12:23:51;12.67;;;10.57;;
13568;SDS011;6856;51.460;7.158;2024-03-08T12:26:40;11.97;;;10.77;;
13568;SDS011;6856;51.460;7.158;2024-03-08T12:29:17;11.27;;;10.17;;
13568;SDS011;6856;51.460;7.158;2024-03-08T12:31:58;11.10;;;9.30;;
13568;SDS011;6856;51.460;7.158;2024-03-08T12:34:34;9.83;;;8.57;;
13568;SDS011;6856;51.460;7.158;2024-03-08T12:37:07;10.80;;;9.70;;
13568;SDS011;6856;51.460;7.158;2024-03-08T12:39:42;11.77;;;10.00;;
13568;SDS011;6856;51.460;7.158;2024-03-08T12:42:17;10.27;;;8.00;;
13568;SDS011;6856;51.460;7.158;2024-03-08T12:44:51;6.80;;;5.37;;
13568;SDS011;6856;51.460;7.158;2024-03-08T12:47:26;8.07;;;5.83;;
13568;SDS011;6856;51.460;7.158;2024-03-08T12:50:02;5.40;;;4.67;;
13568;SDS011;6856;51.460;7.158;2024-03-08T12:52:39;7.13;;;5.10;;
13568;SDS011;6856;51.460;7.158;2024-03-08T12:55:13;6.53;;;5.37;;
13568;SDS011;6856;51.460;7.158;2024-03-08T12:57:48;5.97;;;4.93;;
13568;SDS011;6856;51.460;7.158;2024-03-08T13:00:24;5.93;;;4.90;;
13568;SDS011;6856;51.460;7.158;2024-03-08T13:03:01;5.80;;;4.87;;
13568;SDS011;6856;51.460;7.158;2024-03-08T13:05:35;6.47;;;5.13;;
13568;SDS011;6856;51.460;7.158;2024-03-08T13:08:11;5.90;;;4.30;;
13568;SDS011;6856;51.460;7.158;2024-03-08T13:10:45;5.53;;;4.60;;
13568;SDS011;6856;51.460;7.158;2024-03-08T13:13:19;7.00;;;5.33;;
13568;SDS011;6856;51.460;7.158;2024-03-08T13:15:54;6.13;;;5.07;;
13568;SDS011;6856;51.460;7.158;2024-03-08T13:18:30;6.27;;;5.13;;
13568;SDS011;6856;51.460;7.158;2024-03-08T13:21:05;5.47;;;4.50;;
13568;SDS011;6856;51.460;7.158;2024-03-08T13:23:40;6.83;;;5.30;;
13568;SDS011;6856;51.460;7.158;2024-03-08T13:26:17;8.37;;;4.97;;
13568;SDS011;6856;51.460;7.158;2024-03-08T13:28:51;6.23;;;4.37;;
13568;SDS011;6856;51.460;7.158;2024-03-08T13:31:26;6.60;;;5.20;;
13568;SDS011;6856;51.460;7.158;2024-03-08T13:34:01;8.13;;;5.13;;
13568;SDS011;6856;51.460;7.158;2024-03-08T13:36:37;7.10;;;5.93;;
13568;SDS011;6856;51.460;7.158;2024-03-08T13:39:16;7.03;;;5.67;;
13568;SDS011;6856;51.460;7.158;2024-03-08T13:41:52;6.83;;;5.60;;
13568;SDS011;6856;51.460;7.158;2024-03-08T13:44:26;7.03;;;5.60;;
13568;SDS011;6856;51.460;7.158;2024-03-08T13:47:01;7.10;;;6.30;;
13568;SDS011;6856;51.460;7.158;2024-03-08T13:49:40;7.33;;;5.93;;
13568;SDS011;6856;51.460;7.158;2024-03-08T13:52:15;7.27;;;5.90;;
13568;SDS011;6856;51.460;7.158;2024-03-08T13:54:50;6.80;;;5.17;;
13568;SDS011;6856;51.460;7.158;2024-03-08T13:57:24;7.70;;;5.97;;
13568;SDS011;6856;51.460;7.158;2024-03-08T13:59:59;7.03;;;5.60;;
13568;SDS011;6856;51.460;7.158;2024-03-08T14:02:33;8.83;;;6.03;;
13568;SDS011;6856;51.460;7.158;2024-03-08T14:05:10;7.63;;;6.00;;
13568;SDS011;6856;51.460;7.158;2024-03-08T14:07:46;6.70;;;5.23;;
13568;SDS011;6856;51.460;7.158;2024-03-08T14:10:21;6.17;;;5.07;;
13568;SDS011;6856;51.460;7.158;2024-03-08T14:12:55;6.10;;;5.20;;
13568;SDS011;6856;51.460;7.158;2024-03-08T14:15:29;6.37;;;5.30;;
13568;SDS011;6856;51.460;7.158;2024-03-08T14:18:04;7.77;;;5.50;;
13568;SDS011;6856;51.460;7.158;2024-03-08T14:20:41;7.67;;;5.50;;
13568;SDS011;6856;51.460;7.158;2024-03-08T14:23:16;6.93;;;5.80;;
13568;SDS011;6856;51.460;7.158;2024-03-08T14:25:50;7.03;;;5.43;;
13568;SDS011;6856;51.460;7.158;2024-03-08T14:28:24;6.90;;;5.30;;
13568;SDS011;6856;51.460;7.158;2024-03-08T14:30:58;8.23;;;6.40;;
13568;SDS011;6856;51.460;7.158;2024-03-08T14:33:37;6.90;;;5.70;;
13568;SDS011;6856;51.460;7.158;2024-03-08T14:36:15;6.30;;;5.60;;
13568;SDS011;6856;51.460;7.158;2024-03-08T14:38:51;7.20;;;6.30;;
13568;SDS011;6856;51.460;7.158;2024-03-08T14:41:26;8.67;;;6.17;;
13568;SDS011;6856;51.460;7.158;2024-03-08T14:44:01;7.63;;;6.20;;
13568;SDS011;6856;51.460;7.158;2024-03-08T14:46:35;7.13;;;6.20;;
13568;SDS011;6856;51.460;7.158;2024-03-08T14:49:10;8.60;;;6.37;;
13568;SDS011;6856;51.460;7.158;2024-03-08T14:51:45;7.93;;;6.03;;
13568;SDS011;6856;51.460;7.158;2024-03-08T14:54:19;7.97;;;5.97;;
13568;SDS011;6856;51.460;7.158;2024-03-08T14:56:54;8.40;;;6.83;;
13568;SDS011;6856;51.460;7.158;2024-03-08T14:59:29;8.57;;;7.13;;
13568;SDS011;6856;51.460;7.158;2024-03-08T15:02:05;7.53;;;6.73;;
13568;SDS011;6856;51.460;7.158;2024-03-08T15:04:39;8.50;;;7.40;;
13568;SDS011;6856;51.460;7.158;2024-03-08T15:07:14;8.43;;;7.37;;
13568;SDS011;6856;51.460;7.158;2024-03-08T15:09:49;9.27;;;7.57;;
13568;SDS011;6856;51.460;7.158;2024-03-08T15:12:23;9.57;;;7.93;;
13568;SDS011;6856;51.460;7.158;2024-03-08T15:14:58;9.00;;;7.23;;
13568;SDS011;6856;51.460;7.158;2024-03-08T15:17:31;9.70;;;7.50;;
13568;SDS011;6856;51.460;7.158;2024-03-08T15:20:06;10.40;;;7.17;;
13568;SDS011;6856;51.460;7.158;2024-03-08T15:23:02;8.07;;;7.27;;
13568;SDS011;6856;51.460;7.158;2024-03-08T15:25:37;8.60;;;7.37;;
13568;SDS011;6856;51.460;7.158;2024-03-08T15:28:15;6.93;;;6.03;;
13568;SDS011;6856;51.460;7.158;2024-03-08T15:30:52;7.27;;;6.03;;
13568;SDS011;6856;51.460;7.158;2024-03-08T15:33:26;7.83;;;6.50;;
13568;SDS011;6856;51.460;7.158;2024-03-08T15:36:02;7.83;;;6.93;;